createdAt,value
2023-05-22T00:01:43.662Z,65.7
2023-05-22T00:05:43.670Z,65.9
2023-05-22T00:07:43.722Z,65.8
2023-05-22T00:09:43.691Z,65.8
2023-05-22T00:11:43.662Z,66.0
2023-05-22T00:13:43.668Z,65.7
2023-05-22T00:19:43.697Z,66.0
2023-05-22T00:27:43.687Z,66.6
2023-05-22T00:29:43.672Z,66.3
2023-05-22T00:31:43.703Z,66.2
2023-05-22T00:35:43.709Z,66.3
2023-05-22T00:37:43.705Z,66.3
2023-05-22T00:39:43.715Z,66.7
2023-05-22T00:43:43.700Z,67.1
2023-05-22T00:47:43.720Z,67.2
2023-05-22T00:51:43.713Z,67.7
2023-05-22T00:53:43.706Z,66.9
2023-05-22T00:55:43.696Z,67.1
2023-05-22T00:57:43.709Z,67.6
2023-05-22T00:59:43.701Z,68.0
2023-05-22T01:03:43.829Z,67.3
2023-05-22T01:09:43.750Z,67.4
2023-05-22T01:11:43.709Z,68.0
2023-05-22T01:13:43.714Z,68.0
2023-05-22T01:15:43.745Z,68.6
2023-05-22T01:17:43.748Z,68.4
2023-05-22T01:21:43.730Z,69.1
2023-05-22T01:23:43.719Z,69.8
2023-05-22T01:31:43.744Z,69.1
2023-05-22T01:33:43.865Z,69.0
2023-05-22T01:35:43.729Z,69.9
2023-05-22T01:37:43.758Z,69.6
2023-05-22T01:39:43.740Z,70.4
2023-05-22T01:43:43.777Z,71.2
2023-05-22T01:45:43.752Z,71.2
2023-05-22T01:49:43.778Z,70.7
2023-05-22T01:53:43.765Z,70.7
2023-05-22T01:55:43.763Z,70.5
2023-05-22T01:57:43.753Z,71.5
2023-05-22T01:59:43.785Z,71.1
2023-05-22T02:01:43.950Z,70.7
2023-05-22T02:07:43.788Z,70.3
2023-05-22T02:09:43.773Z,70.3
2023-05-22T02:15:43.836Z,69.9
2023-05-22T02:17:43.783Z,70.2
2023-05-22T02:19:43.810Z,70.5
2023-05-22T02:21:43.766Z,70.7
2023-05-22T02:25:43.793Z,70.4
2023-05-22T02:27:43.789Z,70.8
2023-05-22T02:33:43.802Z,70.5
2023-05-22T02:35:43.788Z,71.2
2023-05-22T02:37:43.822Z,70.5
2023-05-22T02:43:43.832Z,69.8
2023-05-22T02:45:43.800Z,70.5
2023-05-22T02:47:43.868Z,71.0
2023-05-22T02:53:43.821Z,70.2
2023-05-22T02:55:43.818Z,70.5
2023-05-22T02:57:43.825Z,70.6
2023-05-22T03:01:43.849Z,70.9
2023-05-22T03:05:43.830Z,70.5
2023-05-22T03:07:45.011Z,71.2
2023-05-22T03:11:43.824Z,70.7
2023-05-22T03:13:43.814Z,70.9
2023-05-22T03:15:43.854Z,70.7
2023-05-22T03:21:43.842Z,71.0
2023-05-22T03:23:43.821Z,71.2
2023-05-22T03:25:43.826Z,71.6
2023-05-22T03:27:43.871Z,71.6
2023-05-22T03:31:43.836Z,71.1
2023-05-22T03:35:43.852Z,72.0
2023-05-22T03:37:43.863Z,71.8
2023-05-22T03:41:43.848Z,72.0
2023-05-22T03:49:43.889Z,71.5
2023-05-22T03:55:43.858Z,72.5
2023-05-22T04:05:43.880Z,72.4
2023-05-22T04:07:43.893Z,72.4
2023-05-22T04:09:43.890Z,72.7
2023-05-22T04:19:43.898Z,72.7
2023-05-22T04:25:43.892Z,71.9
2023-05-22T04:31:44.009Z,71.8
2023-05-22T04:35:43.886Z,71.9
2023-05-22T04:37:43.921Z,72.7
2023-05-22T04:43:43.912Z,71.5
2023-05-22T04:53:43.916Z,71.4
2023-05-22T05:05:43.932Z,71.7
2023-05-22T05:07:43.924Z,71.6
2023-05-22T05:09:43.920Z,71.8
2023-05-22T05:13:43.923Z,71.6
2023-05-22T05:15:43.912Z,72.0
2023-05-22T05:17:44.005Z,72.2
2023-05-22T05:19:43.930Z,71.0
2023-05-22T05:21:43.917Z,71.3
2023-05-22T05:23:43.935Z,71.3
2023-05-22T05:31:43.974Z,71.5
2023-05-22T05:37:43.967Z,71.4
2023-05-22T05:39:43.926Z,71.6
2023-05-22T05:41:43.939Z,71.6
2023-05-22T05:43:43.978Z,71.9
2023-05-22T05:47:43.957Z,71.5
2023-05-22T05:51:43.970Z,71.6
2023-05-22T05:59:43.962Z,71.1
2023-05-22T06:05:44.055Z,71.1
2023-05-22T06:09:44.011Z,70.6
2023-05-22T06:11:43.963Z,70.6
2023-05-22T06:13:43.962Z,70.0
2023-05-22T06:15:43.978Z,70.6
2023-05-22T06:19:43.987Z,70.5
2023-05-22T06:23:43.991Z,70.4
2023-05-22T06:25:43.986Z,70.0
2023-05-22T06:27:44.012Z,70.0
2023-05-22T06:31:44.025Z,70.0
2023-05-22T06:33:44.089Z,68.9
2023-05-22T06:35:43.992Z,69.1
2023-05-22T06:37:44.004Z,69.4
2023-05-22T06:39:44.003Z,69.2
2023-05-22T06:43:43.998Z,69.3
2023-05-22T06:45:44.051Z,69.2
2023-05-22T06:47:44.008Z,68.4
2023-05-22T06:51:44.022Z,67.8
2023-05-22T06:55:44.020Z,68.0
2023-05-22T06:57:44.053Z,67.7
2023-05-22T07:03:44.020Z,67.5
2023-05-22T07:05:44.079Z,66.6
2023-05-22T07:07:44.015Z,66.3
2023-05-22T07:11:44.050Z,66.3
2023-05-22T07:15:46.326Z,66.3
2023-05-22T07:17:44.054Z,66.2
2023-05-22T07:19:44.015Z,65.4
2023-05-22T07:21:44.053Z,66.3
2023-05-22T07:23:44.033Z,65.8
2023-05-22T07:27:44.032Z,66.0
2023-05-22T07:29:44.060Z,65.2
2023-05-22T07:31:44.129Z,64.3
2023-05-22T07:33:44.027Z,64.9
2023-05-22T07:35:44.055Z,64.4
2023-05-22T07:37:44.056Z,64.9
2023-05-22T07:43:44.062Z,64.5
2023-05-22T07:45:44.099Z,64.6
2023-05-22T07:47:44.094Z,63.5
2023-05-22T07:51:44.047Z,63.9
2023-05-22T07:53:44.069Z,63.8
2023-05-22T07:55:44.051Z,64.1
2023-05-22T07:57:44.079Z,64.2
2023-05-22T07:59:44.144Z,63.6
2023-05-22T08:01:44.077Z,62.5
2023-05-22T08:03:44.132Z,61.5
2023-05-22T08:05:44.072Z,60.9
2023-05-22T08:09:44.057Z,61.4
2023-05-22T08:13:44.081Z,61.5
2023-05-22T08:17:44.129Z,60.9
2023-05-22T08:19:44.161Z,60.3
2023-05-22T08:23:44.085Z,59.3
2023-05-22T08:27:44.125Z,58.7
2023-05-22T08:29:44.099Z,58.6
2023-05-22T08:31:44.139Z,58.1
2023-05-22T08:35:44.101Z,57.4
2023-05-22T08:39:44.116Z,55.2
2023-05-22T08:41:44.094Z,55.1
2023-05-22T08:43:44.095Z,53.6
2023-05-22T08:47:44.217Z,54.6
2023-05-22T08:49:44.169Z,53.5
2023-05-22T08:51:44.108Z,53.2
2023-05-22T08:53:44.111Z,52.1
2023-05-22T08:55:44.099Z,54.1
2023-05-22T08:57:44.147Z,53.7
2023-05-22T08:59:44.116Z,52.1
2023-05-22T09:07:44.143Z,51.0
2023-05-22T09:09:44.182Z,51.0
2023-05-22T09:11:44.111Z,51.5
2023-05-22T09:13:44.129Z,50.1
2023-05-22T09:17:44.147Z,51.0
2023-05-22T09:19:44.134Z,51.9
2023-05-22T09:21:44.130Z,51.1
2023-05-22T09:23:44.160Z,48.7
2023-05-22T09:27:44.140Z,50.4
2023-05-22T09:29:44.186Z,48.4
2023-05-22T09:31:44.650Z,48.4
2023-05-22T09:33:44.180Z,48.4
2023-05-22T09:35:44.180Z,48.0
2023-05-22T09:39:44.150Z,48.4
2023-05-22T09:45:44.173Z,46.9
2023-05-22T09:47:44.190Z,45.9
2023-05-22T09:49:44.152Z,45.2
2023-05-22T09:51:44.147Z,45.9
2023-05-22T09:55:44.183Z,44.2
2023-05-22T09:57:44.185Z,43.1
2023-05-22T09:59:44.206Z,44.4
2023-05-22T10:01:44.201Z,44.2
2023-05-22T10:05:44.211Z,44.1
2023-05-22T10:09:44.180Z,42.8
2023-05-22T10:11:44.188Z,43.2
2023-05-22T10:13:44.181Z,42.8
2023-05-22T10:15:44.212Z,44.4
2023-05-22T10:17:44.264Z,44.5
2023-05-22T10:23:44.199Z,43.9
2023-05-22T10:25:44.189Z,44.0
2023-05-22T10:29:44.221Z,44.6
2023-05-22T10:31:44.186Z,44.0
2023-05-22T10:33:44.245Z,44.8
2023-05-22T10:35:44.214Z,44.0
2023-05-22T10:37:44.199Z,44.0
2023-05-22T10:39:44.201Z,43.7
2023-05-22T10:41:44.213Z,44.2
2023-05-22T10:45:45.401Z,44.3
2023-05-22T10:47:44.295Z,44.6
2023-05-22T10:49:44.253Z,43.5
2023-05-22T10:51:44.206Z,43.5
2023-05-22T10:53:44.235Z,42.2
2023-05-22T10:55:44.216Z,42.3
2023-05-22T10:57:44.215Z,41.1
2023-05-22T11:01:44.262Z,42.0
2023-05-22T11:03:44.330Z,42.2
2023-05-22T11:05:44.221Z,42.0
2023-05-22T11:07:44.303Z,42.3
2023-05-22T11:09:44.230Z,41.8
2023-05-22T11:11:44.261Z,41.5
2023-05-22T11:13:44.254Z,41.6
2023-05-22T11:15:44.238Z,41.6
2023-05-22T11:17:44.300Z,40.1
2023-05-22T11:19:44.338Z,41.0
2023-05-22T11:21:44.237Z,39.5
2023-05-22T11:25:44.263Z,40.4
2023-05-22T11:27:44.267Z,40.0
2023-05-22T11:29:44.273Z,40.1
2023-05-22T11:31:44.333Z,40.1
2023-05-22T11:35:44.281Z,39.6
2023-05-22T11:39:44.304Z,39.4
2023-05-22T11:41:44.280Z,39.2
2023-05-22T11:43:44.273Z,38.2
2023-05-22T11:45:44.284Z,38.2
2023-05-22T11:47:44.279Z,38.0
2023-05-22T11:49:44.302Z,38.1
2023-05-22T11:53:44.274Z,37.6
2023-05-22T11:55:44.316Z,36.3
2023-05-22T11:57:44.320Z,36.5
2023-05-22T11:59:44.269Z,35.8
2023-05-22T12:01:44.300Z,37.0
2023-05-22T12:03:44.371Z,36.8
2023-05-22T12:05:44.297Z,36.2
2023-05-22T12:11:44.303Z,35.4
2023-05-22T12:15:44.299Z,35.8
2023-05-22T12:17:44.428Z,35.9
2023-05-22T12:19:44.323Z,35.6
2023-05-22T12:21:44.295Z,35.5
2023-05-22T12:23:44.286Z,34.4
2023-05-22T12:25:44.320Z,34.4
2023-05-22T12:29:44.317Z,34.1
2023-05-22T12:33:44.324Z,34.8
2023-05-22T12:35:44.305Z,34.5
2023-05-22T12:37:44.332Z,34.3
2023-05-22T12:39:44.342Z,34.0
2023-05-22T12:41:44.338Z,34.1
2023-05-22T12:43:44.354Z,33.8
2023-05-22T12:45:44.340Z,33.8
2023-05-22T12:49:44.356Z,33.3
2023-05-22T12:51:44.341Z,33.1
2023-05-22T12:53:44.322Z,33.0
2023-05-22T13:01:44.373Z,33.3
2023-05-22T13:03:44.332Z,34.2
2023-05-22T13:05:44.349Z,33.7
2023-05-22T13:07:44.340Z,32.9
2023-05-22T13:09:44.333Z,32.4
2023-05-22T13:11:44.406Z,31.7
2023-05-22T13:13:44.337Z,32.3
2023-05-22T13:15:44.409Z,32.3
2023-05-22T13:17:44.418Z,31.0
2023-05-22T13:19:44.345Z,30.0
2023-05-22T13:23:44.382Z,31.2
2023-05-22T13:25:44.355Z,29.4
2023-05-22T13:27:44.366Z,31.7
2023-05-22T13:29:44.396Z,30.5
2023-05-22T13:31:44.404Z,29.6
2023-05-22T13:33:44.373Z,30.6
2023-05-22T13:37:44.386Z,30.1
2023-05-22T13:39:44.373Z,29.7
2023-05-22T13:41:44.384Z,29.3
2023-05-22T13:43:44.373Z,29.6
2023-05-22T13:45:44.372Z,29.4
2023-05-22T13:47:44.465Z,26.7
2023-05-22T13:49:44.380Z,27.2
2023-05-22T13:51:44.391Z,27.4
2023-05-22T13:53:44.425Z,27.6
2023-05-22T13:55:44.390Z,27.6
2023-05-22T13:57:44.383Z,28.4
2023-05-22T13:59:44.426Z,26.4
2023-05-22T14:03:44.445Z,26.3
2023-05-22T14:05:44.415Z,26.9
2023-05-22T14:07:44.395Z,25.6
2023-05-22T14:09:44.392Z,27.3
2023-05-22T14:11:44.432Z,26.8
2023-05-22T14:13:44.396Z,27.2
2023-05-22T14:15:44.430Z,27.2
2023-05-22T14:17:44.522Z,27.3
2023-05-22T14:19:44.463Z,26.8
2023-05-22T14:21:44.401Z,26.2
2023-05-22T14:23:44.457Z,26.8
2023-05-22T14:25:44.429Z,26.7
2023-05-22T14:27:44.412Z,26.9
2023-05-22T14:29:44.462Z,26.2
2023-05-22T14:31:44.427Z,24.8
2023-05-22T14:33:44.414Z,26.5
2023-05-22T14:35:44.428Z,25.6
2023-05-22T14:37:44.434Z,24.7
2023-05-22T14:39:44.430Z,25.7
2023-05-22T14:41:44.438Z,26.4
2023-05-22T14:43:44.433Z,25.2
2023-05-22T14:47:44.514Z,25.1
2023-05-22T14:51:44.443Z,25.0
2023-05-22T14:53:44.480Z,26.2
2023-05-22T14:55:44.445Z,25.3
2023-05-22T14:57:44.463Z,24.9
2023-05-22T14:59:44.494Z,25.0
2023-05-22T15:01:44.543Z,25.8
2023-05-22T15:03:44.448Z,25.8
2023-05-22T15:05:44.479Z,24.2
2023-05-22T15:09:44.464Z,24.6
2023-05-22T15:11:44.477Z,25.2
2023-05-22T15:13:44.467Z,25.9
2023-05-22T15:17:44.620Z,24.1
2023-05-22T15:19:44.483Z,24.1
2023-05-22T15:21:44.479Z,24.4
2023-05-22T15:23:44.505Z,24.3
2023-05-22T15:25:44.471Z,23.7
2023-05-22T15:29:44.540Z,23.6
2023-05-22T15:33:44.474Z,22.3
2023-05-22T15:35:44.502Z,23.3
2023-05-22T15:37:44.485Z,24.1
2023-05-22T15:39:44.503Z,23.8
2023-05-22T15:41:51.564Z,23.8
2023-05-22T15:43:44.527Z,22.0
2023-05-22T15:45:44.889Z,21.4
2023-05-22T15:47:44.546Z,21.9
2023-05-22T15:49:44.489Z,22.6
2023-05-22T15:51:44.504Z,21.7
2023-05-22T15:53:44.500Z,21.5
2023-05-22T15:55:44.497Z,21.7
2023-05-22T15:57:44.676Z,21.5
2023-05-22T15:59:44.512Z,22.2
2023-05-22T16:01:44.546Z,21.4
2023-05-22T16:03:44.642Z,22.5
2023-05-22T16:05:44.514Z,20.9
2023-05-22T16:09:44.541Z,21.7
2023-05-22T16:11:44.526Z,22.0
2023-05-22T16:13:44.541Z,22.3
2023-05-22T16:15:44.742Z,22.5
2023-05-22T16:17:44.603Z,23.1
2023-05-22T16:19:44.521Z,22.9
2023-05-22T16:21:44.575Z,23.2
2023-05-22T16:23:44.528Z,23.7
2023-05-22T16:25:44.536Z,23.6
2023-05-22T16:29:44.545Z,22.1
2023-05-22T16:33:44.567Z,22.6
2023-05-22T16:37:44.576Z,22.5
2023-05-22T16:39:44.548Z,22.9
2023-05-22T16:43:44.590Z,22.9
2023-05-22T16:45:44.565Z,22.7
2023-05-22T16:47:44.611Z,23.7
2023-05-22T16:49:44.582Z,24.6
2023-05-22T16:51:44.574Z,24.6
2023-05-22T16:53:44.572Z,25.6
2023-05-22T16:55:44.602Z,25.9
2023-05-22T16:57:44.559Z,26.2
2023-05-22T16:59:44.574Z,26.5
2023-05-22T17:03:44.906Z,26.8
2023-05-22T17:05:44.579Z,27.1
2023-05-22T17:07:44.632Z,27.6
2023-05-22T17:11:44.584Z,27.6
2023-05-22T17:13:44.610Z,27.7
2023-05-22T17:15:44.583Z,28.1
2023-05-22T17:17:44.662Z,28.0
2023-05-22T17:23:44.617Z,28.9
2023-05-22T17:25:44.604Z,28.6
2023-05-22T17:29:44.596Z,28.7
2023-05-22T17:31:44.636Z,28.7
2023-05-22T17:33:44.616Z,28.6
2023-05-22T17:35:44.589Z,29.1
2023-05-22T17:37:44.633Z,29.0
2023-05-22T17:39:44.592Z,28.5
2023-05-22T17:41:44.604Z,29.1
2023-05-22T17:45:44.716Z,28.6
2023-05-22T17:47:44.652Z,29.3
2023-05-22T17:49:44.651Z,28.6
2023-05-22T17:51:44.619Z,29.1
2023-05-22T17:53:44.660Z,29.2
2023-05-22T17:55:44.629Z,29.2
2023-05-22T17:57:44.625Z,29.4
2023-05-22T18:01:44.690Z,28.9
2023-05-22T18:07:44.679Z,29.5
2023-05-22T18:09:44.669Z,30.1
2023-05-22T18:11:44.633Z,30.0
2023-05-22T18:13:44.682Z,30.3
2023-05-22T18:15:44.740Z,30.5
2023-05-22T18:19:44.686Z,30.5
2023-05-22T18:23:44.663Z,31.0
2023-05-22T18:27:44.676Z,31.6
2023-05-22T18:29:44.648Z,31.8
2023-05-22T18:41:44.702Z,32.4
2023-05-22T18:43:44.664Z,32.3
2023-05-22T18:45:44.676Z,32.2
2023-05-22T18:47:44.744Z,32.3
2023-05-22T18:51:44.713Z,33.1
2023-05-22T18:55:44.684Z,33.6
2023-05-22T18:57:44.720Z,33.9
2023-05-22T18:59:44.670Z,33.9
2023-05-22T19:03:44.719Z,34.4
2023-05-22T19:05:44.687Z,34.9
2023-05-22T19:09:44.739Z,35.2
2023-05-22T19:11:44.690Z,35.4
2023-05-22T19:15:44.700Z,35.7
2023-05-22T19:21:44.708Z,36.0
2023-05-22T19:25:44.709Z,36.3
2023-05-22T19:31:44.787Z,36.7
2023-05-22T19:39:44.749Z,36.8
2023-05-22T19:41:44.718Z,37.2
2023-05-22T19:43:44.734Z,37.2
2023-05-22T19:49:45.058Z,37.4
2023-05-22T19:51:44.746Z,37.8
2023-05-22T20:01:44.811Z,38.4
2023-05-22T20:03:44.897Z,38.5
2023-05-22T20:05:44.749Z,39.1
2023-05-22T20:09:44.781Z,40.0
2023-05-22T20:11:44.763Z,40.4
2023-05-22T20:13:44.742Z,40.5
2023-05-22T20:15:44.764Z,40.1
2023-05-22T20:17:44.856Z,39.8
2023-05-22T20:23:44.771Z,39.7
2023-05-22T20:31:44.817Z,39.6
2023-05-22T20:35:44.804Z,39.5
2023-05-22T20:43:44.793Z,39.7
2023-05-22T20:47:44.861Z,40.1
2023-05-22T20:49:44.786Z,39.8
2023-05-22T20:55:44.812Z,40.2
2023-05-22T20:59:44.830Z,40.4
2023-05-22T21:01:44.826Z,40.2
2023-05-22T21:03:44.805Z,40.5
2023-05-22T21:05:44.850Z,40.6
2023-05-22T21:07:44.806Z,40.7
2023-05-22T21:09:44.801Z,40.7
2023-05-22T21:13:44.822Z,41.0
2023-05-22T21:15:44.835Z,41.1
2023-05-22T21:19:44.858Z,41.0
2023-05-22T21:21:44.806Z,41.1
2023-05-22T21:23:44.838Z,41.2
2023-05-22T21:25:44.835Z,41.7
2023-05-22T21:27:44.817Z,41.6
2023-05-22T21:29:44.826Z,41.8
2023-05-22T21:35:44.845Z,42.4
2023-05-22T21:37:44.859Z,42.4
2023-05-22T21:47:44.893Z,43.0
2023-05-22T21:53:44.860Z,43.1
2023-05-22T21:57:44.884Z,43.9
2023-05-22T21:59:44.901Z,44.5
2023-05-22T22:03:44.957Z,44.5
2023-05-22T22:05:44.854Z,44.9
2023-05-22T22:09:44.953Z,45.7
2023-05-22T22:11:44.856Z,45.3
2023-05-22T22:19:44.901Z,46.8
2023-05-22T22:21:44.880Z,46.2
2023-05-22T22:25:44.867Z,46.5
2023-05-22T22:27:44.895Z,47.3
2023-05-22T22:29:44.890Z,47.7
2023-05-22T22:31:44.950Z,48.1
2023-05-22T22:33:44.910Z,48.6
2023-05-22T22:39:44.925Z,49.2
2023-05-22T22:41:44.876Z,49.7
2023-05-22T22:43:44.885Z,50.1
2023-05-22T22:45:44.932Z,49.9
2023-05-22T22:49:44.906Z,50.3
2023-05-22T22:51:44.910Z,50.2
2023-05-22T22:53:44.890Z,50.7
2023-05-22T22:55:44.924Z,51.0
2023-05-22T22:57:44.934Z,51.2
2023-05-22T22:59:44.900Z,51.4
2023-05-22T23:01:44.990Z,51.3
2023-05-22T23:03:44.949Z,52.5
2023-05-22T23:05:45.222Z,52.5
2023-05-22T23:07:44.946Z,53.2
2023-05-22T23:09:44.985Z,54.1
2023-05-22T23:11:44.915Z,54.3
2023-05-22T23:13:44.947Z,55.1
2023-05-22T23:15:44.969Z,54.8
2023-05-22T23:25:44.935Z,54.9
2023-05-22T23:29:44.972Z,55.3
2023-05-22T23:37:44.951Z,55.5
2023-05-22T23:39:44.971Z,56.3
2023-05-22T23:41:44.933Z,57.5
2023-05-22T23:43:44.941Z,58.6
2023-05-22T23:45:44.974Z,59.1
2023-05-22T23:47:45.026Z,60.1
2023-05-22T23:51:45.286Z,60.7
2023-05-22T23:53:44.954Z,60.1
2023-05-22T23:55:44.962Z,60.1
2023-05-22T23:59:44.969Z,60.5
